Time;durP1;ratioP1;P1;durP2;ratioP2;P2;SDS_P1;SDS_P2;PMS_P1;PMS_P2;Temp;Humidity;BMP_temperature;BMP_pressure;BME280_temperature;BME280_humidity;BME280_pressure;Samples;Min_cycle;Max_cycle;Signal;HPM_P1;HPM_P2
2022/08/10 04:30:16;;;;;;;;;3.00;3.00;;;;;23.12;39.94;101940.22;6040489;22;45137;-65
2022/08/10 04:32:44;;;;;;;;;3.33;3.33;;;;;23.09;39.92;101943.22;4981209;28;46409;-62
2022/08/10 04:35:10;;;;;;;;;5.33;3.00;;;;;23.06;40.01;101943.44;4980444;28;45516;-64
2022/08/10 04:37:36;;;;;;;;;6.00;5.00;;;;;23.04;40.18;101940.03;4980585;28;45377;-62
2022/08/10 04:40:03;;;;;;;;;4.33;3.00;;;;;23.04;40.16;101943.59;4974779;28;46426;-62
2022/08/10 04:42:29;;;;;;;;;3.67;3.67;;;;;23.02;40.07;101948.25;4980366;28;46387;-63
2022/08/10 04:44:54;;;;;;;;;5.00;4.00;;;;;23.01;40.13;101949.28;4977166;28;45658;-62
2022/08/10 04:47:20;;;;;;;;;1.67;1.67;;;;;23.03;40.29;101947.28;4980278;28;68114;-64
2022/08/10 04:49:45;;;;;;;;;2.00;2.00;;;;;23.00;40.20;101942.13;4979615;28;69171;-62
2022/08/10 04:52:11;;;;;;;;;5.33;3.67;;;;;23.01;40.39;101951.13;4981697;28;46846;-63
2022/08/10 04:54:36;;;;;;;;;4.00;3.67;;;;;22.96;40.36;101952.38;4980133;28;64318;-63
2022/08/10 04:57:01;;;;;;;;;3.00;3.00;;;;;22.93;40.94;101951.75;4980779;28;68033;-62
2022/08/10 04:59:27;;;;;;;;;2.00;2.00;;;;;22.93;40.40;101955.34;4981788;28;45421;-63
2022/08/10 05:01:52;;;;;;;;;4.00;4.00;;;;;22.94;40.72;101959.78;4980408;28;73595;-62
2022/08/10 05:04:17;;;;;;;;;4.00;4.00;;;;;22.93;40.80;101958.06;4981222;28;45598;-62
2022/08/10 05:06:43;;;;;;;;;3.00;3.00;;;;;22.92;40.63;101956.34;4980329;28;69074;-62
2022/08/10 05:09:08;;;;;;;;;3.00;3.00;;;;;22.91;40.63;101957.31;4980081;28;68421;-62
2022/08/10 05:11:33;;;;;;;;;3.00;3.00;;;;;22.91;40.55;101957.31;4979599;28;73560;-62
2022/08/10 05:13:59;;;;;;;;;4.67;3.67;;;;;22.92;40.79;101960.91;4978683;28;45368;-62
2022/08/10 05:16:24;;;;;;;;;3.00;3.00;;;;;22.92;40.62;101956.34;4981216;28;53855;-63
2022/08/10 05:18:49;;;;;;;;;7.00;3.00;;;;;22.89;40.86;101964.75;4981733;28;45416;-63
2022/08/10 05:21:15;;;;;;;;;4.33;4.33;;;;;22.88;40.34;101960.31;4981251;28;46008;-63
2022/08/10 05:23:40;;;;;;;;;4.00;3.00;;;;;22.90;40.76;101965.59;4979606;28;64997;-63
2022/08/10 05:26:05;;;;;;;;;3.00;3.00;;;;;22.90;40.92;101960.16;4980428;28;67514;-63
2022/08/10 05:28:31;;;;;;;;;1.00;1.00;;;;;22.88;40.85;101964.84;4981486;28;45357;-63
2022/08/10 05:30:56;;;;;;;;;4.33;4.00;;;;;22.85;40.98;101965.97;4981570;28;45489;-63
2022/08/10 05:33:22;;;;;;;;;3.00;3.00;;;;;22.85;40.94;101965.13;4980921;28;45628;-63
2022/08/10 05:35:47;;;;;;;;;6.00;4.67;;;;;22.85;40.79;101968.69;4979754;28;63138;-63
2022/08/10 05:38:13;;;;;;;;;3.33;3.33;;;;;22.85;40.83;101965.97;4986757;28;67373;-63
2022/08/10 05:40:39;;;;;;;;;4.00;4.00;;;;;22.86;41.33;101964.13;4979699;28;72017;-63
2022/08/10 05:43:06;;;;;;;;;4.33;4.33;;;;;22.87;40.94;101971.28;4980694;28;45281;-63
2022/08/10 05:45:31;;;;;;;;;4.00;4.00;;;;;22.85;41.33;101967.84;4981378;28;45298;-63
2022/08/10 05:47:56;;;;;;;;;4.33;3.00;;;;;22.85;41.08;101963.25;4980612;28;62717;-63
2022/08/10 05:50:33;;;;;;;;;2.33;2.33;;;;;22.88;41.17;101963.03;4980878;28;69448;-63
2022/08/10 05:52:59;;;;;;;;;4.00;4.00;;;;;22.91;41.38;101970.88;4976341;28;45509;-63
2022/08/10 05:55:28;;;;;;;;;4.67;4.33;;;;;22.91;41.26;101975.47;4981459;28;45401;-63
2022/08/10 05:57:53;;;;;;;;;3.00;3.00;;;;;22.91;41.20;101973.59;4979882;28;45516;-63
2022/08/10 06:00:20;;;;;;;;;4.00;4.00;;;;;22.91;41.52;101975.47;4978866;28;70272;-63
2022/08/10 06:02:52;;;;;;;;;3.67;3.67;;;;;22.90;41.31;101968.31;4980335;28;45460;-63
2022/08/10 06:05:27;;;;;;;;;3.00;3.00;;;;;22.90;41.75;101971.03;4996695;28;45318;-63
2022/08/10 06:07:59;;;;;;;;;4.00;4.00;;;;;22.91;41.34;101973.59;4979298;28;45473;-63
2022/08/10 06:10:27;;;;;;;;;4.00;4.00;;;;;22.93;41.10;101971.63;4978861;28;47232;-62
2022/08/10 06:15:38;;;;;;;;;4.00;3.33;;;;;23.03;41.09;101973.56;4987580;28;45437;-61
2022/08/10 06:18:04;;;;;;;;;4.00;4.00;;;;;23.04;40.95;101976.13;4980030;28;45162;-61
2022/08/10 06:20:31;;;;;;;;;4.00;4.00;;;;;23.09;41.10;101976.59;4980147;28;45364;-61
2022/08/10 06:23:00;;;;;;;;;5.00;4.33;;;;;23.15;41.12;101977.97;4974712;28;45137;-61
2022/08/10 06:25:28;;;;;;;;;5.00;5.00;;;;;23.19;41.14;101979.41;4979797;28;45361;-61
2022/08/10 06:27:54;;;;;;;;;3.00;3.00;;;;;23.25;40.83;101970.75;4979590;28;45478;-61
2022/08/10 06:30:21;;;;;;;;;4.00;3.67;;;;;23.34;40.83;101984.53;4979991;28;75562;-61
2022/08/10 06:32:48;;;;;;;;;5.67;4.67;;;;;23.39;40.92;101985.00;4978006;28;45445;-60
2022/08/10 06:35:14;;;;;;;;;5.33;5.00;;;;;23.42;40.81;101982.03;4979919;28;45499;-60
2022/08/10 06:37:41;;;;;;;;;5.00;3.67;;;;;23.44;40.40;101975.47;4976693;28;66077;-62
2022/08/10 06:40:07;;;;;;;;;4.67;3.00;;;;;23.49;40.55;101982.34;4977532;28;45452;-61
2022/08/10 06:42:37;;;;;;;;;3.33;3.33;;;;;23.56;40.06;101972.69;4978181;28;45299;-63
2022/08/10 06:45:12;;;;;;;;;2.00;2.00;;;;;23.66;39.92;101975.44;4979650;28;45524;-61
2022/08/10 06:48:05;;;;;;;;;5.00;5.00;;;;;23.77;40.16;101975.38;4978071;28;45321;-62
2022/08/10 06:50:37;;;;;;;;;4.00;4.00;;;;;23.93;40.15;101974.91;4988872;28;45327;-62
2022/08/10 06:53:07;;;;;;;;;3.00;3.00;;;;;24.08;39.50;101973.53;4978925;28;45428;-62
2022/08/10 06:55:33;;;;;;;;;5.00;5.00;;;;;24.22;39.01;101983.19;4994436;28;45402;-62
2022/08/10 06:58:00;;;;;;;;;6.67;5.67;;;;;24.35;38.76;101980.19;4977872;28;45616;-62
2022/08/10 07:00:28;;;;;;;;;4.00;4.00;;;;;24.45;38.55;101981.06;4978147;28;45830;-62
2022/08/10 07:02:57;;;;;;;;;3.67;3.67;;;;;24.59;38.35;101981.69;4979122;28;45186;-62
2022/08/10 07:05:26;;;;;;;;;2.00;2.00;;;;;24.75;38.24;101981.16;4995768;28;45413;-61
2022/08/10 07:07:55;;;;;;;;;6.00;5.00;;;;;24.89;38.17;101988.06;4961162;28;45483;-62
2022/08/10 07:10:21;;;;;;;;;5.00;4.00;;;;;25.08;38.30;101984.47;4974928;28;45394;-61
2022/08/10 07:12:47;;;;;;;;;4.00;4.00;;;;;25.23;37.30;101984.91;4971053;28;45971;-61
2022/08/10 07:15:14;;;;;;;;;6.33;5.67;;;;;25.39;37.49;101990.63;4993910;28;45471;-61
2022/08/10 07:17:39;;;;;;;;;7.33;5.33;;;;;25.55;37.11;101983.72;4978201;28;46008;-61
2022/08/10 07:20:08;;;;;;;;;6.00;5.00;;;;;25.69;36.56;101980.53;4988246;28;68858;-61
2022/08/10 07:22:35;;;;;;;;;6.33;6.33;;;;;25.87;36.59;101988.78;4971644;28;45290;-61
2022/08/10 07:25:01;;;;;;;;;2.00;2.00;;;;;26.03;36.58;101992.75;4978331;28;45356;-61
2022/08/10 07:27:28;;;;;;;;;3.00;3.00;;;;;26.17;36.14;101985.97;4993341;28;45504;-62
2022/08/10 07:29:53;;;;;;;;;5.00;5.00;;;;;26.32;35.92;101980.88;4959937;28;66750;-62
2022/08/10 07:32:21;;;;;;;;;3.67;3.67;;;;;26.53;36.05;101977.84;4979426;28;45659;-61
2022/08/10 07:34:48;;;;;;;;;3.33;3.33;;;;;26.72;35.42;101975.03;4976054;28;45416;-61
2022/08/10 07:37:14;;;;;;;;;4.67;4.67;;;;;26.88;35.46;101982.53;4977457;28;45684;-61
2022/08/10 07:39:42;;;;;;;;;3.00;3.00;;;;;27.06;34.48;101973.47;4977378;28;64639;-61
2022/08/10 07:42:09;;;;;;;;;4.00;4.00;;;;;27.15;34.33;101983.44;4976389;28;45436;-62
2022/08/10 07:44:36;;;;;;;;;6.67;5.00;;;;;27.32;34.30;101983.56;4975353;28;45340;-62
2022/08/10 07:47:03;;;;;;;;;1.67;1.67;;;;;27.51;34.20;101983.41;4959708;28;55540;-62
2022/08/10 07:49:33;;;;;;;;;9.67;5.33;;;;;27.67;33.38;101990.00;4992679;28;47039;-62
2022/08/10 07:51:59;;;;;;;;;4.00;3.67;;;;;27.82;33.53;101991.13;4977664;28;45524;-62
2022/08/10 07:54:26;;;;;;;;;3.00;3.00;;;;;28.04;33.28;101981.53;4975636;28;67182;-62
2022/08/10 07:56:54;;;;;;;;;7.33;7.33;;;;;28.30;33.32;101993.41;4976972;28;45479;-62
2022/08/10 07:59:25;;;;;;;;;4.00;4.00;;;;;28.61;33.08;101981.88;4976671;28;45563;-62
2022/08/10 08:01:52;;;;;;;;;7.00;7.00;;;;;28.96;32.38;101982.66;4976442;28;45382;-62
2022/08/10 08:04:20;;;;;;;;;5.00;5.00;;;;;29.25;32.19;101993.06;4978532;28;45302;-62
2022/08/10 08:06:47;;;;;;;;;4.00;4.00;;;;;29.57;31.02;101990.50;4974962;28;45424;-62
2022/08/10 08:09:13;;;;;;;;;3.67;3.67;;;;;29.75;31.05;101990.28;4977622;28;46118;-62
2022/08/10 08:11:41;;;;;;;;;5.00;5.00;;;;;29.91;29.90;101994.91;4977032;28;45467;-62
2022/08/10 08:14:07;;;;;;;;;3.67;3.67;;;;;30.05;29.68;101987.81;4976435;28;45619;-62
2022/08/10 08:16:35;;;;;;;;;3.67;3.67;;;;;30.13;29.11;101985.03;4976666;28;45469;-62
2022/08/10 08:19:02;;;;;;;;;5.00;5.00;;;;;30.28;29.37;101986.00;4977664;28;45423;-62
2022/08/10 08:21:28;;;;;;;;;4.00;4.00;;;;;30.41;28.98;101982.69;4990495;28;45524;-62
2022/08/10 08:23:53;;;;;;;;;3.33;3.33;;;;;30.63;28.38;101970.06;4990336;28;45566;-64
2022/08/10 08:26:21;;;;;;;;;5.00;5.00;;;;;30.78;28.49;101978.38;4974118;28;45549;-62
2022/08/10 08:28:47;;;;;;;;;3.67;3.67;;;;;30.94;28.56;101974.63;4966098;28;45536;-62
2022/08/10 08:31:14;;;;;;;;;3.67;3.67;;;;;31.13;28.63;101970.56;4970301;28;45519;-62
2022/08/10 08:33:40;;;;;;;;;4.00;4.00;;;;;31.29;27.97;101969.56;4972423;28;45521;-62
2022/08/10 08:36:06;;;;;;;;;3.00;3.00;;;;;31.44;27.68;101975.06;4992350;28;45530;-62
2022/08/10 08:38:34;;;;;;;;;4.33;4.00;;;;;31.74;27.62;101964.13;4978386;28;46314;-62
2022/08/10 08:41:12;;;;;;;;;4.67;4.67;;;;;32.14;27.46;101964.66;4989129;28;45460;-62
2022/08/10 08:43:37;;;;;;;;;4.00;4.00;;;;;32.40;26.04;101963.31;4980436;28;45436;-62
2022/08/10 08:46:42;;;;;;;;;5.00;5.00;;;;;32.55;26.13;101956.91;4976450;28;45577;-62
2022/08/10 08:49:13;;;;;;;;;5.00;4.67;;;;;32.75;26.37;101958.00;4974114;28;47271;-62
2022/08/10 08:52:02;;;;;;;;;3.00;3.00;;;;;32.93;26.25;101962.16;4974542;28;45788;-62
2022/08/10 08:54:33;;;;;;;;;4.67;4.67;;;;;33.13;25.77;101959.59;4984047;28;45243;-62
2022/08/10 08:57:19;;;;;;;;;5.00;5.00;;;;;33.42;25.97;101964.09;4976425;28;45389;-62
2022/08/10 09:00:09;;;;;;;;;3.33;3.33;;;;;33.50;24.93;101962.25;4971807;28;46511;-62
2022/08/10 09:03:05;;;;;;;;;3.00;3.00;;;;;33.56;24.07;101964.16;4975826;28;45570;-60
2022/08/10 09:05:49;;;;;;;;;4.00;3.67;;;;;33.64;25.02;101964.03;4976862;28;45463;-60
2022/08/10 09:08:49;;;;;;;;;4.00;3.00;;;;;33.77;24.23;101954.97;4978769;28;45401;-62
2022/08/10 09:11:17;;;;;;;;;6.67;6.67;;;;;33.86;23.11;101958.44;4974946;28;45494;-60
2022/08/10 09:14:04;;;;;;;;;1.33;1.33;;;;;33.86;23.66;101958.44;4980044;28;45502;-60
2022/08/10 09:16:42;;;;;;;;;5.00;4.00;;;;;34.03;24.36;101953.41;4977434;28;45424;-60
2022/08/10 09:19:31;;;;;;;;;4.00;4.00;;;;;34.35;23.62;101949.09;4980277;28;45327;-60
2022/08/10 09:22:21;;;;;;;;;4.67;2.00;;;;;34.63;23.09;101939.81;4995223;28;46128;-60
2022/08/10 09:24:55;;;;;;;;;5.00;5.00;;;;;34.83;22.83;101941.75;4981271;28;45459;-60
2022/08/10 09:27:40;;;;;;;;;5.67;5.67;;;;;34.95;22.33;101943.72;4981717;28;45368;-61
2022/08/10 09:30:07;;;;;;;;;4.00;4.00;;;;;35.19;22.67;101943.25;4980789;28;45376;-61
2022/08/10 09:32:39;;;;;;;;;2.00;2.00;;;;;35.38;22.15;101941.56;4982353;28;46258;-61
2022/08/10 09:35:22;;;;;;;;;7.00;5.00;;;;;35.40;21.34;101942.22;4993359;28;45382;-61
2022/08/10 09:38:14;;;;;;;;;6.00;4.33;;;;;35.50;22.26;101936.22;4995540;28;45394;-61
2022/08/10 09:40:57;;;;;;;;;6.33;5.67;;;;;35.58;22.48;101938.78;4980304;28;45392;-61
2022/08/10 09:43:45;;;;;;;;;6.00;6.00;;;;;35.82;21.78;101941.88;4978489;28;46137;-61
2022/08/10 09:46:20;;;;;;;;;8.00;5.33;;;;;36.08;21.65;101927.94;4976108;28;45464;-61
2022/08/10 09:48:49;;;;;;;;;3.67;3.67;;;;;36.33;21.03;101920.78;4978274;28;45443;-61
2022/08/10 09:51:28;;;;;;;;;5.67;4.33;;;;;36.57;21.58;101930.22;4975411;28;45751;-61
2022/08/10 09:53:53;;;;;;;;;3.67;3.67;;;;;36.76;21.26;101928.41;4993703;28;46232;-61
2022/08/10 09:56:35;;;;;;;;;3.00;3.00;;;;;37.02;20.69;101923.75;4980204;28;45499;-61
2022/08/10 09:59:11;;;;;;;;;4.00;4.00;;;;;37.25;20.53;101923.94;4986244;28;45669;-61
2022/08/10 10:01:43;;;;;;;;;4.00;4.00;;;;;37.43;19.51;101916.72;4992534;28;45525;-61
2022/08/10 10:04:25;;;;;;;;;4.00;4.00;;;;;37.58;20.08;101916.34;4978019;28;45584;-61
2022/08/10 10:07:05;;;;;;;;;4.00;4.00;;;;;37.91;19.83;101906.78;4980940;28;45450;-61
2022/08/10 10:09:51;;;;;;;;;4.67;4.67;;;;;38.27;18.83;101905.03;4974126;28;45723;-60
2022/08/10 10:12:31;;;;;;;;;3.33;3.33;;;;;38.63;19.26;101902.34;4980053;28;45678;-60
2022/08/10 10:15:20;;;;;;;;;3.75;3.75;;;;;39.11;17.89;101904.09;4975326;28;47072;-60
2022/08/10 10:18:06;;;;;;;;;3.33;3.33;;;;;39.58;17.85;101902.38;4977174;28;45504;-61
2022/08/10 10:20:43;;;;;;;;;2.00;2.00;;;;;40.00;17.90;101904.91;4980026;28;45811;-61
2022/08/10 10:23:41;;;;;;;;;3.50;3.50;;;;;40.47;15.91;101893.56;4994237;28;45325;-61
2022/08/10 10:26:10;;;;;;;;;4.00;4.00;;;;;40.87;16.32;101900.06;4977373;28;46276;-61
2022/08/10 10:29:20;;;;;;;;;4.67;4.00;;;;;41.21;16.46;101888.06;4992523;28;46217;-61
2022/08/10 10:31:56;;;;;;;;;7.00;6.00;;;;;41.31;15.61;101886.25;4975855;28;45547;-61
2022/08/10 10:34:30;;;;;;;;;5.00;5.00;;;;;41.62;16.10;101880.25;4977569;28;45616;-61
2022/08/10 10:36:56;;;;;;;;;4.00;3.00;;;;;41.99;15.68;101880.44;4988651;28;46137;-61
2022/08/10 10:39:23;;;;;;;;;4.50;3.50;;;;;42.28;14.96;101879.31;4979915;28;45511;-61
2022/08/10 10:42:07;;;;;;;;;4.00;4.00;;;;;42.43;15.15;101878.63;4969598;28;45748;-61
2022/08/10 10:44:47;;;;;;;;;4.00;4.00;;;;;42.58;14.53;101875.09;4978000;28;45360;-61
2022/08/10 10:47:28;;;;;;;;;4.67;4.67;;;;;42.76;14.62;101876.66;4980181;28;45416;-61
2022/08/10 10:50:05;;;;;;;;;3.00;3.00;;;;;43.06;14.68;101858.38;4978879;28;46566;-61
2022/08/10 10:52:53;;;;;;;;;7.00;6.00;;;;;43.27;14.14;101864.94;4976878;28;45353;-62
2022/08/10 10:55:31;;;;;;;;;5.00;5.00;;;;;43.29;14.13;101874.75;4992732;28;45598;-61
2022/08/10 10:58:14;;;;;;;;;5.25;4.25;;;;;43.32;13.42;101866.94;4990165;28;45404;-61
2022/08/10 11:01:05;;;;;;;;;4.00;4.00;;;;;43.41;13.99;101857.72;4978975;28;45912;-62
2022/08/10 11:03:45;;;;;;;;;3.25;3.25;;;;;43.62;13.54;101855.88;4978472;28;45353;-62
2022/08/10 11:06:22;;;;;;;;;5.50;5.50;;;;;43.81;13.44;101849.78;4977437;28;45408;-61
2022/08/10 11:08:52;;;;;;;;;5.00;5.00;;;;;44.16;12.48;101850.97;4976707;28;45310;-61
2022/08/10 11:11:38;;;;;;;;;3.50;3.50;;;;;44.15;13.07;101851.22;4976450;28;45857;-62
2022/08/10 11:14:41;;;;;;;;;5.00;5.00;;;;;44.31;12.85;101838.09;4993794;28;45490;-61
2022/08/10 11:17:32;;;;;;;;;4.00;4.00;;;;;44.22;12.30;101846.19;4979048;28;45720;-62
2022/08/10 11:20:13;;;;;;;;;3.67;3.67;;;;;43.98;11.50;101837.47;4969241;28;46404;-62
2022/08/10 11:23:10;;;;;;;;;4.33;4.33;;;;;43.73;11.75;101836.28;4977727;28;45718;-61
2022/08/10 11:25:38;;;;;;;;;5.00;5.00;;;;;43.67;11.60;101832.66;4979287;28;45353;-62
2022/08/10 11:28:39;;;;;;;;;4.00;4.00;;;;;43.56;12.47;101823.41;4979088;28;45258;-62
2022/08/10 11:31:22;;;;;;;;;3.00;3.00;;;;;43.60;12.08;101823.69;4967560;28;46331;-62
2022/08/10 11:34:15;;;;;;;;;4.33;4.33;;;;;43.60;11.75;101827.31;4978177;28;45288;-62
2022/08/10 11:36:48;;;;;;;;;4.00;4.00;;;;;43.61;11.92;101823.41;4972660;28;45185;-61
2022/08/10 11:39:28;;;;;;;;;1.00;1.00;;;;;43.87;11.85;101815.03;4978859;28;45335;-62
2022/08/10 11:42:02;;;;;;;;;3.67;3.67;;;;;44.15;11.91;101800.78;4978922;28;45652;-62
2022/08/10 11:44:39;;;;;;;;;6.33;5.33;;;;;44.40;10.07;101812.03;4994947;28;45500;-62
2022/08/10 11:47:07;;;;;;;;;5.00;5.00;;;;;44.01;11.27;101812.56;4978328;28;45771;-64
2022/08/10 11:49:36;;;;;;;;;3.33;3.33;;;;;43.61;12.09;101812.22;4979254;28;45349;-61
2022/08/10 11:52:12;;;;;;;;;3.67;3.67;;;;;43.60;11.60;101818.09;4978933;28;46237;-62
2022/08/10 11:54:43;;;;;;;;;4.00;4.00;;;;;43.84;12.10;101810.00;4979695;28;45795;-62
2022/08/10 11:57:10;;;;;;;;;3.00;3.00;;;;;43.91;10.96;101810.63;4979426;28;45424;-62
2022/08/10 11:59:55;;;;;;;;;2.67;2.67;;;;;43.72;11.54;101804.66;4977007;28;45295;-62
2022/08/10 12:02:23;;;;;;;;;3.00;3.00;;;;;43.56;11.92;101801.00;4973501;28;46954;-62
2022/08/10 12:04:56;;;;;;;;;4.00;4.00;;;;;43.03;11.84;101803.81;4977403;28;45585;-62
2022/08/10 12:07:24;;;;;;;;;2.00;2.00;;;;;42.45;11.32;101796.19;4979425;28;45411;-62
2022/08/10 12:09:52;;;;;;;;;2.00;2.00;;;;;42.04;11.87;101797.78;4978546;28;45353;-62
2022/08/10 12:12:18;;;;;;;;;5.00;5.00;;;;;41.71;11.60;101794.94;4976690;28;46402;-62
2022/08/10 12:14:59;;;;;;;;;4.00;4.00;;;;;41.36;12.56;101789.75;4976024;28;45421;-61
2022/08/10 12:17:30;;;;;;;;;3.00;3.00;;;;;41.01;11.87;101787.09;4977382;28;45423;-62
2022/08/10 12:20:10;;;;;;;;;4.00;4.00;;;;;40.77;11.95;101785.63;4994130;28;45602;-62
2022/08/10 12:22:49;;;;;;;;;3.33;3.33;;;;;40.68;12.39;101794.44;4973557;28;46151;-62
2022/08/10 12:25:18;;;;;;;;;4.33;4.33;;;;;40.67;12.21;101775.19;4977803;28;45453;-62
2022/08/10 12:27:48;;;;;;;;;4.00;4.00;;;;;40.47;12.44;101782.09;4977729;28;45337;-62
2022/08/10 12:30:15;;;;;;;;;5.00;5.00;;;;;40.22;13.14;101768.59;4993470;28;45499;-62
2022/08/10 12:32:52;;;;;;;;;4.00;4.00;;;;;40.11;12.26;101766.75;4975509;28;46147;-62
2022/08/10 12:35:38;;;;;;;;;1.67;1.67;;;;;39.78;12.77;101769.22;4969547;28;45551;-62
2022/08/10 12:38:09;;;;;;;;;5.00;5.00;;;;;39.64;12.98;101765.91;4993291;28;45456;-62
2022/08/10 12:40:41;;;;;;;;;4.00;4.00;;;;;39.65;13.40;101756.47;4991450;28;45197;-62
2022/08/10 12:43:15;;;;;;;;;3.00;3.00;;;;;39.73;13.27;101754.34;4975974;28;46373;-62
2022/08/10 12:45:52;;;;;;;;;5.33;4.00;;;;;39.64;13.26;101760.34;4986240;28;45568;-61
2022/08/10 12:48:23;;;;;;;;;2.33;2.33;;;;;39.42;13.01;101754.59;4972016;28;45570;-62
2022/08/10 12:50:57;;;;;;;;;5.33;5.00;;;;;39.22;13.38;101763.38;4999359;28;45782;-62
2022/08/10 12:53:35;;;;;;;;;3.33;3.33;;;;;39.05;13.55;101764.13;4979358;28;46293;-62
2022/08/10 12:56:01;;;;;;;;;4.00;4.00;;;;;38.69;12.85;101763.28;4979964;28;45415;-61
2022/08/10 12:58:28;;;;;;;;;4.67;4.67;;;;;38.35;13.47;101759.44;4981459;28;45392;-61
2022/08/10 13:00:56;;;;;;;;;5.33;5.00;;;;;38.02;13.92;101756.09;4978412;28;45523;-61
2022/08/10 13:03:23;;;;;;;;;6.33;5.00;;;;;37.81;14.48;101751.97;4980119;28;46123;-61
2022/08/10 13:05:50;;;;;;;;;5.00;5.00;;;;;37.66;14.13;101743.19;4978490;28;66879;-62
2022/08/10 13:11:02;;;;;;;;;5.00;5.00;;;;;37.22;14.82;101733.09;4980840;28;45362;-61
2022/08/10 13:13:32;;;;;;;;;4.67;4.67;;;;;37.08;14.94;101726.03;4984421;28;47048;-61
2022/08/10 13:15:58;;;;;;;;;4.00;4.00;;;;;37.10;15.45;101732.16;4975420;28;45399;-62
2022/08/10 13:18:36;;;;;;;;;4.00;4.00;;;;;37.03;14.98;101731.41;4984941;28;46840;-61
2022/08/10 13:21:08;;;;;;;;;3.00;3.00;;;;;36.96;14.92;101734.28;4980785;28;45478;-61
2022/08/10 13:23:40;;;;;;;;;5.00;5.00;;;;;36.86;14.31;101726.47;4980599;28;45364;-62
2022/08/10 13:26:11;;;;;;;;;4.00;4.00;;;;;36.61;14.56;101740.38;4986497;28;45510;-62
2022/08/10 13:28:46;;;;;;;;;3.33;3.33;;;;;36.50;14.60;101741.13;4982295;28;45506;-62
2022/08/10 13:31:16;;;;;;;;;3.00;3.00;;;;;36.37;14.71;101731.00;5004061;28;45428;-62
2022/08/10 13:33:46;;;;;;;;;4.00;4.00;;;;;36.30;15.33;101731.03;4984680;28;45441;-62
2022/08/10 13:36:12;;;;;;;;;5.00;5.00;;;;;36.16;15.20;101723.94;4989766;28;45481;-61
2022/08/10 13:38:38;;;;;;;;;3.33;3.33;;;;;36.14;15.37;101720.53;4981629;28;45334;-62
2022/08/10 13:41:04;;;;;;;;;4.00;4.00;;;;;36.19;15.55;101720.69;4980983;28;46908;-62
2022/08/10 13:43:29;;;;;;;;;5.67;5.33;;;;;36.18;14.99;101713.47;4998599;28;45881;-62
2022/08/10 13:45:56;;;;;;;;;0.67;0.67;;;;;35.97;14.42;101717.47;4981248;28;45600;-62
2022/08/10 13:48:23;;;;;;;;;2.00;2.00;;;;;35.75;15.00;101715.91;4979572;28;45443;-62
2022/08/10 13:50:51;;;;;;;;;6.00;5.00;;;;;35.61;15.20;101711.53;4987659;28;45534;-62
2022/08/10 13:53:18;;;;;;;;;2.00;2.00;;;;;35.47;15.11;101704.38;4974086;28;46225;-62
2022/08/10 13:55:50;;;;;;;;;4.67;4.67;;;;;35.40;15.47;101705.25;4984300;28;45637;-62
2022/08/10 13:58:22;;;;;;;;;3.33;3.33;;;;;35.40;15.41;101699.72;4993541;28;45500;-62
2022/08/10 14:00:48;;;;;;;;;4.00;3.00;;;;;35.42;15.56;101703.13;4995630;28;45704;-62
2022/08/10 14:03:15;;;;;;;;;4.00;4.00;;;;;35.37;15.75;101693.78;4997359;28;46401;-62
2022/08/10 14:05:43;;;;;;;;;3.67;3.67;;;;;35.32;15.94;101686.16;4985481;28;45302;-62
2022/08/10 14:08:11;;;;;;;;;4.00;4.00;;;;;35.33;15.39;101686.97;4975462;28;45699;-62
2022/08/10 14:10:39;;;;;;;;;2.67;2.67;;;;;35.27;15.70;101681.25;4978132;28;45499;-62
2022/08/10 14:13:07;;;;;;;;;3.00;3.00;;;;;35.22;15.62;101691.31;4982106;28;45388;-62
2022/08/10 14:15:33;;;;;;;;;6.00;6.00;;;;;35.11;15.64;101688.16;4985027;28;45313;-62
2022/08/10 14:17:59;;;;;;;;;3.33;3.33;;;;;34.97;15.57;101682.88;4993561;28;45278;-62
2022/08/10 14:20:33;;;;;;;;;3.00;3.00;;;;;34.81;15.59;101674.03;4979903;28;45414;-62
2022/08/10 14:23:01;;;;;;;;;2.67;1.33;;;;;34.71;16.02;101684.66;4984320;28;45519;-62
2022/08/10 14:25:26;;;;;;;;;3.00;3.00;;;;;34.58;15.95;101682.78;4985055;28;45477;-62
2022/08/10 14:27:56;;;;;;;;;3.00;3.00;;;;;34.49;16.34;101684.09;4979581;28;45397;-62
2022/08/10 14:30:22;;;;;;;;;3.00;3.00;;;;;34.47;16.14;101676.00;4983419;28;66771;-63
2022/08/10 14:32:50;;;;;;;;;5.00;5.00;;;;;34.51;16.50;101663.47;4983358;28;73037;-63
2022/08/10 14:35:17;;;;;;;;;3.00;3.00;;;;;34.52;16.36;101662.38;4979597;28;45428;-62
2022/08/10 14:38:08;;;;;;;;;3.67;3.67;;;;;34.51;15.96;101665.38;4977013;28;45444;-62
2022/08/10 14:40:39;;;;;;;;;4.33;4.33;;;;;34.46;16.36;101657.75;4962400;28;45451;-62
2022/08/10 14:43:11;;;;;;;;;2.00;2.00;;;;;34.43;16.29;101653.50;4983535;28;45495;-62
2022/08/10 14:45:39;;;;;;;;;4.67;4.67;;;;;34.46;16.40;101652.22;4982750;28;45367;-62
2022/08/10 14:48:15;;;;;;;;;5.00;5.00;;;;;34.43;15.87;101649.88;4988248;28;45497;-62
2022/08/10 14:50:41;;;;;;;;;2.67;2.67;;;;;34.35;15.98;101653.72;4983354;28;45396;-62
2022/08/10 14:53:12;;;;;;;;;4.33;4.33;;;;;34.30;15.80;101650.72;4974747;28;46077;-63
2022/08/10 14:55:45;;;;;;;;;3.67;3.67;;;;;34.26;16.18;101653.09;4973880;28;45457;-63
2022/08/10 14:58:14;;;;;;;;;6.00;4.67;;;;;34.27;16.42;101656.69;4981621;28;45533;-62
2022/08/10 15:00:41;;;;;;;;;3.67;3.67;;;;;34.25;16.23;101648.63;4977320;28;45772;-62
2022/08/10 15:03:07;;;;;;;;;3.00;3.00;;;;;34.16;16.19;101646.28;4998318;28;46157;-62
2022/08/10 15:05:33;;;;;;;;;4.00;4.00;;;;;34.08;16.51;101647.34;4978886;28;71125;-62
2022/08/10 15:07:59;;;;;;;;;3.67;3.67;;;;;34.05;16.89;101643.09;4975219;28;64719;-63
2022/08/10 15:10:25;;;;;;;;;3.33;3.33;;;;;34.02;16.71;101649.06;4981068;28;45358;-62
2022/08/10 15:12:52;;;;;;;;;5.00;5.00;;;;;33.98;16.99;101647.81;4997188;28;45539;-63
2022/08/10 15:15:18;;;;;;;;;5.00;3.67;;;;;33.94;17.19;101652.06;4997858;28;71683;-62
2022/08/10 15:17:52;;;;;;;;;4.33;4.33;;;;;33.91;17.06;101646.94;4996842;28;45387;-62
2022/08/10 15:20:20;;;;;;;;;4.00;4.00;;;;;33.89;17.26;101640.81;4996183;28;45767;-64
2022/08/10 15:22:51;;;;;;;;;5.33;4.00;;;;;33.90;17.32;101637.00;4988123;28;47252;-61
2022/08/10 15:25:19;;;;;;;;;3.67;3.67;;;;;33.91;17.25;101636.78;4976601;28;45710;-61
2022/08/10 15:27:46;;;;;;;;;3.00;3.00;;;;;33.91;17.07;101635.91;4985202;28;45447;-61
2022/08/10 15:30:12;;;;;;;;;1.00;1.00;;;;;33.87;17.47;101638.25;4999968;28;45491;-60
2022/08/10 15:38:16;;;;;;;;;5.67;4.00;;;;;33.77;17.40;101612.97;4982445;28;45574;-62
2022/08/10 15:40:49;;;;;;;;;3.33;3.33;;;;;33.78;17.51;101615.53;4977799;28;45559;-62
2022/08/10 15:43:14;;;;;;;;;3.00;3.00;;;;;33.79;17.53;101611.75;4985911;28;46002;-62
2022/08/10 15:45:42;;;;;;;;;5.67;4.00;;;;;33.80;17.41;101620.84;4985959;28;45594;-62
2022/08/10 15:48:08;;;;;;;;;3.00;3.00;;;;;33.75;17.33;101615.09;4975585;28;46930;-62
2022/08/10 15:50:38;;;;;;;;;6.00;5.33;;;;;33.68;17.40;101612.34;4974396;28;62750;-62
2022/08/10 15:53:12;;;;;;;;;5.00;4.00;;;;;33.60;17.26;101613.38;4973814;28;46566;-62
2022/08/10 15:55:45;;;;;;;;;3.00;3.00;;;;;33.59;17.21;101617.19;4975783;28;45704;-62
2022/08/10 15:58:23;;;;;;;;;3.00;3.00;;;;;33.53;17.28;101611.69;4991330;28;45591;-62
2022/08/10 16:00:56;;;;;;;;;3.67;3.67;;;;;33.52;17.41;101601.72;4974470;28;45428;-62
2022/08/10 16:03:41;;;;;;;;;4.00;4.00;;;;;33.57;17.27;101599.16;4974956;28;46046;-62
2022/08/10 16:06:07;;;;;;;;;3.00;3.00;;;;;33.61;17.78;101603.19;4976124;28;45540;-62
2022/08/10 16:08:41;;;;;;;;;3.00;3.00;;;;;33.64;17.63;101597.28;4976787;28;45381;-62
2022/08/10 16:11:08;;;;;;;;;4.67;4.33;;;;;33.64;17.31;101591.75;4976193;28;45567;-62
2022/08/10 16:13:35;;;;;;;;;4.00;4.00;;;;;33.62;17.00;101588.34;4976264;28;46401;-62
2022/08/10 16:16:02;;;;;;;;;4.00;4.00;;;;;33.57;17.00;101589.00;4992931;28;45440;-62
2022/08/10 16:18:31;;;;;;;;;3.00;3.00;;;;;33.50;17.09;101588.13;4973438;28;45448;-62
2022/08/10 16:20:58;;;;;;;;;5.67;5.67;;;;;33.44;17.23;101586.22;4977087;28;45460;-62
2022/08/10 16:23:28;;;;;;;;;5.67;5.67;;;;;33.40;17.31;101584.94;4993691;28;45476;-62
2022/08/10 16:26:00;;;;;;;;;2.67;2.67;;;;;33.42;17.47;101580.91;4976861;28;45533;-62